sensor_id;sensor_type;location;lat;lon;timestamp;P1;durP1;ratioP1;P2;durP2;ratioP2
4885;SDS011;2457;51.788;6.136;2022-08-18T00:00:47;37.13;;;25.37;;
4885;SDS011;2457;51.788;6.136;2022-08-18T00:03:14;35.73;;;23.17;;
4885;SDS011;2457;51.788;6.136;2022-08-18T00:05:42;37.65;;;23.50;;
4885;SDS011;2457;51.788;6.136;2022-08-18T00:08:09;37.87;;;24.50;;
4885;SDS011;2457;51.788;6.136;2022-08-18T00:10:39;35.40;;;24.00;;
4885;SDS011;2457;51.788;6.136;2022-08-18T00:13:06;38.30;;;24.30;;
4885;SDS011;2457;51.788;6.136;2022-08-18T00:15:33;37.10;;;23.93;;
4885;SDS011;2457;51.788;6.136;2022-08-18T00:18:00;41.50;;;25.43;;
4885;SDS011;2457;51.788;6.136;2022-08-18T00:20:27;39.93;;;25.80;;
4885;SDS011;2457;51.788;6.136;2022-08-18T00:22:55;43.70;;;27.20;;
4885;SDS011;2457;51.788;6.136;2022-08-18T00:25:23;40.33;;;26.20;;
4885;SDS011;2457;51.788;6.136;2022-08-18T00:27:50;42.80;;;27.77;;
4885;SDS011;2457;51.788;6.136;2022-08-18T00:30:18;41.30;;;27.17;;
4885;SDS011;2457;51.788;6.136;2022-08-18T00:32:47;44.37;;;26.57;;
4885;SDS011;2457;51.788;6.136;2022-08-18T00:35:31;43.57;;;27.03;;
4885;SDS011;2457;51.788;6.136;2022-08-18T00:38:00;42.77;;;27.80;;
4885;SDS011;2457;51.788;6.136;2022-08-18T00:40:39;42.20;;;26.03;;
4885;SDS011;2457;51.788;6.136;2022-08-18T00:43:07;45.10;;;27.87;;
4885;SDS011;2457;51.788;6.136;2022-08-18T00:45:36;45.47;;;29.90;;
4885;SDS011;2457;51.788;6.136;2022-08-18T00:48:05;45.50;;;27.93;;
4885;SDS011;2457;51.788;6.136;2022-08-18T00:50:37;45.13;;;28.63;;
4885;SDS011;2457;51.788;6.136;2022-08-18T00:53:09;44.10;;;28.87;;
4885;SDS011;2457;51.788;6.136;2022-08-18T00:55:33;43.47;;;27.50;;
4885;SDS011;2457;51.788;6.136;2022-08-18T01:00:47;46.73;;;29.00;;
4885;SDS011;2457;51.788;6.136;2022-08-18T01:03:16;45.10;;;28.37;;
4885;SDS011;2457;51.788;6.136;2022-08-18T01:05:46;49.50;;;28.40;;
4885;SDS011;2457;51.788;6.136;2022-08-18T01:08:13;43.73;;;28.50;;
4885;SDS011;2457;51.788;6.136;2022-08-18T01:10:41;48.20;;;29.37;;
4885;SDS011;2457;51.788;6.136;2022-08-18T01:13:09;49.73;;;29.57;;
4885;SDS011;2457;51.788;6.136;2022-08-18T01:15:36;46.40;;;27.80;;
4885;SDS011;2457;51.788;6.136;2022-08-18T01:18:05;43.37;;;28.67;;
4885;SDS011;2457;51.788;6.136;2022-08-18T01:21:11;50.00;;;28.40;;
4885;SDS011;2457;51.788;6.136;2022-08-18T01:23:55;42.53;;;28.17;;
4885;SDS011;2457;51.788;6.136;2022-08-18T01:26:25;54.17;;;29.43;;
4885;SDS011;2457;51.788;6.136;2022-08-18T01:28:52;45.53;;;27.80;;
4885;SDS011;2457;51.788;6.136;2022-08-18T01:31:34;45.20;;;28.60;;
4885;SDS011;2457;51.788;6.136;2022-08-18T01:33:59;40.77;;;27.87;;
4885;SDS011;2457;51.788;6.136;2022-08-18T01:36:26;43.57;;;28.10;;
4885;SDS011;2457;51.788;6.136;2022-08-18T01:38:54;48.00;;;28.83;;
4885;SDS011;2457;51.788;6.136;2022-08-18T01:41:22;39.50;;;24.97;;
4885;SDS011;2457;51.788;6.136;2022-08-18T01:43:51;39.10;;;26.30;;
4885;SDS011;2457;51.788;6.136;2022-08-18T01:46:19;37.90;;;24.87;;
4885;SDS011;2457;51.788;6.136;2022-08-18T01:48:47;41.10;;;25.50;;
4885;SDS011;2457;51.788;6.136;2022-08-18T01:51:14;39.07;;;24.03;;
4885;SDS011;2457;51.788;6.136;2022-08-18T01:53:43;34.70;;;22.33;;
4885;SDS011;2457;51.788;6.136;2022-08-18T01:56:11;38.33;;;23.07;;
4885;SDS011;2457;51.788;6.136;2022-08-18T01:58:40;35.43;;;21.90;;
4885;SDS011;2457;51.788;6.136;2022-08-18T02:01:08;37.30;;;22.60;;
4885;SDS011;2457;51.788;6.136;2022-08-18T02:03:38;37.93;;;22.40;;
4885;SDS011;2457;51.788;6.136;2022-08-18T02:06:12;37.97;;;23.03;;
4885;SDS011;2457;51.788;6.136;2022-08-18T02:08:35;31.43;;;20.97;;
4885;SDS011;2457;51.788;6.136;2022-08-18T02:11:03;37.67;;;22.37;;
4885;SDS011;2457;51.788;6.136;2022-08-18T02:13:32;30.20;;;19.63;;
4885;SDS011;2457;51.788;6.136;2022-08-18T02:16:00;28.03;;;19.43;;
4885;SDS011;2457;51.788;6.136;2022-08-18T02:18:29;31.43;;;20.40;;
4885;SDS011;2457;51.788;6.136;2022-08-18T02:20:56;31.63;;;20.10;;
4885;SDS011;2457;51.788;6.136;2022-08-18T02:23:24;31.87;;;19.40;;
4885;SDS011;2457;51.788;6.136;2022-08-18T02:25:51;31.63;;;19.77;;
4885;SDS011;2457;51.788;6.136;2022-08-18T02:28:19;33.43;;;17.90;;
4885;SDS011;2457;51.788;6.136;2022-08-18T02:30:46;25.70;;;17.87;;
4885;SDS011;2457;51.788;6.136;2022-08-18T02:33:13;26.63;;;18.40;;
4885;SDS011;2457;51.788;6.136;2022-08-18T02:35:40;29.40;;;19.30;;
4885;SDS011;2457;51.788;6.136;2022-08-18T02:38:09;27.73;;;18.60;;
4885;SDS011;2457;51.788;6.136;2022-08-18T02:40:36;29.53;;;19.30;;
4885;SDS011;2457;51.788;6.136;2022-08-18T02:43:07;31.67;;;19.77;;
4885;SDS011;2457;51.788;6.136;2022-08-18T02:45:38;27.03;;;17.60;;
4885;SDS011;2457;51.788;6.136;2022-08-18T02:48:05;27.47;;;17.83;;
4885;SDS011;2457;51.788;6.136;2022-08-18T02:50:33;33.20;;;17.40;;
4885;SDS011;2457;51.788;6.136;2022-08-18T02:53:02;27.23;;;16.90;;
4885;SDS011;2457;51.788;6.136;2022-08-18T02:55:29;26.30;;;18.13;;
4885;SDS011;2457;51.788;6.136;2022-08-18T02:57:56;28.80;;;17.83;;
4885;SDS011;2457;51.788;6.136;2022-08-18T03:00:25;24.37;;;16.80;;
4885;SDS011;2457;51.788;6.136;2022-08-18T03:02:53;27.40;;;17.20;;
4885;SDS011;2457;51.788;6.136;2022-08-18T03:05:20;25.63;;;16.10;;
4885;SDS011;2457;51.788;6.136;2022-08-18T03:07:47;24.97;;;16.33;;
4885;SDS011;2457;51.788;6.136;2022-08-18T03:10:15;24.37;;;15.87;;
4885;SDS011;2457;51.788;6.136;2022-08-18T03:12:43;21.13;;;13.37;;
4885;SDS011;2457;51.788;6.136;2022-08-18T03:15:10;22.37;;;14.00;;
4885;SDS011;2457;51.788;6.136;2022-08-18T03:17:38;20.47;;;12.87;;
4885;SDS011;2457;51.788;6.136;2022-08-18T03:20:05;23.63;;;14.53;;
4885;SDS011;2457;51.788;6.136;2022-08-18T03:22:33;21.00;;;13.03;;
4885;SDS011;2457;51.788;6.136;2022-08-18T03:25:00;24.73;;;13.97;;
4885;SDS011;2457;51.788;6.136;2022-08-18T03:27:27;22.03;;;13.37;;
4885;SDS011;2457;51.788;6.136;2022-08-18T03:29:54;18.93;;;12.87;;
4885;SDS011;2457;51.788;6.136;2022-08-18T03:32:22;19.80;;;12.57;;
4885;SDS011;2457;51.788;6.136;2022-08-18T03:34:49;17.93;;;12.00;;
4885;SDS011;2457;51.788;6.136;2022-08-18T03:37:17;18.00;;;11.60;;
4885;SDS011;2457;51.788;6.136;2022-08-18T03:39:44;20.90;;;12.40;;
4885;SDS011;2457;51.788;6.136;2022-08-18T03:42:11;19.73;;;11.87;;
4885;SDS011;2457;51.788;6.136;2022-08-18T03:44:39;16.50;;;10.97;;
4885;SDS011;2457;51.788;6.136;2022-08-18T03:47:07;18.70;;;13.53;;
4885;SDS011;2457;51.788;6.136;2022-08-18T03:49:35;22.47;;;11.53;;
4885;SDS011;2457;51.788;6.136;2022-08-18T03:52:02;16.43;;;11.33;;
4885;SDS011;2457;51.788;6.136;2022-08-18T03:54:30;15.93;;;11.23;;
4885;SDS011;2457;51.788;6.136;2022-08-18T03:56:59;18.93;;;11.67;;
4885;SDS011;2457;51.788;6.136;2022-08-18T03:59:26;20.83;;;11.20;;
4885;SDS011;2457;51.788;6.136;2022-08-18T04:01:53;15.67;;;10.40;;
4885;SDS011;2457;51.788;6.136;2022-08-18T04:04:22;15.43;;;10.67;;
4885;SDS011;2457;51.788;6.136;2022-08-18T04:06:51;15.20;;;10.40;;
4885;SDS011;2457;51.788;6.136;2022-08-18T04:09:23;20.17;;;10.43;;
4885;SDS011;2457;51.788;6.136;2022-08-18T04:11:51;19.07;;;10.00;;
4885;SDS011;2457;51.788;6.136;2022-08-18T04:14:20;17.20;;;11.13;;
4885;SDS011;2457;51.788;6.136;2022-08-18T04:16:50;17.87;;;10.80;;
4885;SDS011;2457;51.788;6.136;2022-08-18T04:19:18;13.90;;;9.43;;
4885;SDS011;2457;51.788;6.136;2022-08-18T04:21:45;16.40;;;11.23;;
4885;SDS011;2457;51.788;6.136;2022-08-18T04:24:12;16.17;;;10.00;;
4885;SDS011;2457;51.788;6.136;2022-08-18T04:26:41;17.53;;;9.00;;
4885;SDS011;2457;51.788;6.136;2022-08-18T04:29:09;15.40;;;9.37;;
4885;SDS011;2457;51.788;6.136;2022-08-18T04:31:36;14.50;;;9.67;;
4885;SDS011;2457;51.788;6.136;2022-08-18T04:34:04;12.57;;;8.93;;
4885;SDS011;2457;51.788;6.136;2022-08-18T04:36:32;14.07;;;9.13;;
4885;SDS011;2457;51.788;6.136;2022-08-18T04:39:08;15.17;;;9.10;;
4885;SDS011;2457;51.788;6.136;2022-08-18T04:41:32;16.20;;;10.40;;
4885;SDS011;2457;51.788;6.136;2022-08-18T04:44:00;14.73;;;9.17;;
4885;SDS011;2457;51.788;6.136;2022-08-18T04:46:28;12.93;;;9.00;;
4885;SDS011;2457;51.788;6.136;2022-08-18T04:48:57;18.10;;;9.33;;
4885;SDS011;2457;51.788;6.136;2022-08-18T04:51:26;16.17;;;9.10;;
4885;SDS011;2457;51.788;6.136;2022-08-18T04:53:54;17.80;;;8.90;;
4885;SDS011;2457;51.788;6.136;2022-08-18T04:56:30;12.60;;;8.20;;
4885;SDS011;2457;51.788;6.136;2022-08-18T04:58:53;18.07;;;9.03;;
4885;SDS011;2457;51.788;6.136;2022-08-18T05:01:22;14.73;;;8.70;;
4885;SDS011;2457;51.788;6.136;2022-08-18T05:03:50;17.27;;;9.70;;
4885;SDS011;2457;51.788;6.136;2022-08-18T05:06:18;15.30;;;9.17;;
4885;SDS011;2457;51.788;6.136;2022-08-18T05:08:46;13.03;;;8.87;;
4885;SDS011;2457;51.788;6.136;2022-08-18T05:11:13;13.17;;;8.30;;
4885;SDS011;2457;51.788;6.136;2022-08-18T05:13:41;13.00;;;7.60;;
4885;SDS011;2457;51.788;6.136;2022-08-18T05:16:08;16.77;;;8.20;;
4885;SDS011;2457;51.788;6.136;2022-08-18T05:18:35;12.27;;;7.60;;
4885;SDS011;2457;51.788;6.136;2022-08-18T05:21:06;14.20;;;7.40;;
4885;SDS011;2457;51.788;6.136;2022-08-18T05:23:35;12.50;;;7.47;;
4885;SDS011;2457;51.788;6.136;2022-08-18T05:26:03;12.50;;;7.43;;
4885;SDS011;2457;51.788;6.136;2022-08-18T05:28:31;13.73;;;7.30;;
4885;SDS011;2457;51.788;6.136;2022-08-18T05:31:10;12.37;;;6.67;;
4885;SDS011;2457;51.788;6.136;2022-08-18T05:33:29;14.10;;;6.90;;
4885;SDS011;2457;51.788;6.136;2022-08-18T05:36:00;13.20;;;7.50;;
4885;SDS011;2457;51.788;6.136;2022-08-18T05:38:34;12.20;;;6.97;;
4885;SDS011;2457;51.788;6.136;2022-08-18T05:41:14;14.83;;;7.00;;
4885;SDS011;2457;51.788;6.136;2022-08-18T05:43:38;11.70;;;7.07;;
4885;SDS011;2457;51.788;6.136;2022-08-18T05:46:05;13.47;;;7.00;;
4885;SDS011;2457;51.788;6.136;2022-08-18T05:48:33;13.57;;;7.17;;
4885;SDS011;2457;51.788;6.136;2022-08-18T05:51:04;16.20;;;7.53;;
4885;SDS011;2457;51.788;6.136;2022-08-18T05:53:30;13.40;;;7.23;;
4885;SDS011;2457;51.788;6.136;2022-08-18T05:56:16;11.17;;;7.33;;
4885;SDS011;2457;51.788;6.136;2022-08-18T05:59:03;12.83;;;7.30;;
4885;SDS011;2457;51.788;6.136;2022-08-18T06:01:32;10.10;;;7.17;;
4885;SDS011;2457;51.788;6.136;2022-08-18T06:04:11;11.17;;;6.80;;
4885;SDS011;2457;51.788;6.136;2022-08-18T06:06:34;12.47;;;6.57;;
4885;SDS011;2457;51.788;6.136;2022-08-18T06:09:09;12.17;;;6.63;;
4885;SDS011;2457;51.788;6.136;2022-08-18T06:11:37;13.17;;;8.00;;
4885;SDS011;2457;51.788;6.136;2022-08-18T06:14:04;11.07;;;7.30;;
4885;SDS011;2457;51.788;6.136;2022-08-18T06:21:42;13.03;;;6.30;;
4885;SDS011;2457;51.788;6.136;2022-08-18T06:24:28;11.47;;;7.57;;
4885;SDS011;2457;51.788;6.136;2022-08-18T06:27:18;9.53;;;5.90;;
4885;SDS011;2457;51.788;6.136;2022-08-18T06:37:15;10.43;;;7.20;;
4885;SDS011;2457;51.788;6.136;2022-08-18T06:39:47;11.43;;;6.90;;
4885;SDS011;2457;51.788;6.136;2022-08-18T06:42:18;14.50;;;7.27;;
4885;SDS011;2457;51.788;6.136;2022-08-18T06:44:48;11.53;;;7.03;;
4885;SDS011;2457;51.788;6.136;2022-08-18T06:47:26;11.37;;;6.93;;
4885;SDS011;2457;51.788;6.136;2022-08-18T06:52:31;11.43;;;6.57;;
4885;SDS011;2457;51.788;6.136;2022-08-18T06:55:05;13.27;;;7.37;;
4885;SDS011;2457;51.788;6.136;2022-08-18T06:57:32;12.07;;;6.90;;
4885;SDS011;2457;51.788;6.136;2022-08-18T07:00:03;13.40;;;7.47;;
4885;SDS011;2457;51.788;6.136;2022-08-18T07:05:15;14.20;;;6.77;;
4885;SDS011;2457;51.788;6.136;2022-08-18T07:07:45;12.97;;;7.70;;
4885;SDS011;2457;51.788;6.136;2022-08-18T07:12:41;11.63;;;7.20;;
4885;SDS011;2457;51.788;6.136;2022-08-18T07:15:11;10.97;;;6.60;;
4885;SDS011;2457;51.788;6.136;2022-08-18T07:17:38;12.73;;;7.03;;
4885;SDS011;2457;51.788;6.136;2022-08-18T07:20:07;12.50;;;7.07;;
4885;SDS011;2457;51.788;6.136;2022-08-18T07:25:26;14.53;;;7.60;;
4885;SDS011;2457;51.788;6.136;2022-08-18T07:27:49;12.23;;;7.00;;
4885;SDS011;2457;51.788;6.136;2022-08-18T07:35:22;12.00;;;6.73;;
4885;SDS011;2457;51.788;6.136;2022-08-18T07:38:05;10.23;;;6.67;;
4885;SDS011;2457;51.788;6.136;2022-08-18T07:40:34;11.47;;;6.70;;
4885;SDS011;2457;51.788;6.136;2022-08-18T07:43:01;13.17;;;6.50;;
4885;SDS011;2457;51.788;6.136;2022-08-18T07:50:46;12.67;;;6.13;;
4885;SDS011;2457;51.788;6.136;2022-08-18T07:55:43;13.43;;;5.87;;
4885;SDS011;2457;51.788;6.136;2022-08-18T08:06:08;10.60;;;6.07;;
4885;SDS011;2457;51.788;6.136;2022-08-18T08:08:41;8.73;;;5.40;;
4885;SDS011;2457;51.788;6.136;2022-08-18T08:16:15;11.73;;;6.10;;
4885;SDS011;2457;51.788;6.136;2022-08-18T08:19:06;8.67;;;5.43;;
4885;SDS011;2457;51.788;6.136;2022-08-18T08:21:10;11.27;;;5.83;;
4885;SDS011;2457;51.788;6.136;2022-08-18T08:23:40;10.10;;;5.90;;
4885;SDS011;2457;51.788;6.136;2022-08-18T08:34:27;10.33;;;6.37;;
4885;SDS011;2457;51.788;6.136;2022-08-18T08:36:57;9.90;;;6.00;;
4885;SDS011;2457;51.788;6.136;2022-08-18T08:39:24;11.80;;;6.10;;
4885;SDS011;2457;51.788;6.136;2022-08-18T08:41:58;12.47;;;7.27;;
4885;SDS011;2457;51.788;6.136;2022-08-18T08:46:55;13.33;;;6.37;;
4885;SDS011;2457;51.788;6.136;2022-08-18T08:49:24;9.83;;;5.83;;
4885;SDS011;2457;51.788;6.136;2022-08-18T08:51:55;10.30;;;6.20;;
4885;SDS011;2457;51.788;6.136;2022-08-18T08:54:28;12.83;;;7.23;;
4885;SDS011;2457;51.788;6.136;2022-08-18T08:56:55;8.33;;;5.63;;
4885;SDS011;2457;51.788;6.136;2022-08-18T08:59:23;13.80;;;7.47;;
4885;SDS011;2457;51.788;6.136;2022-08-18T09:04:30;9.27;;;5.80;;
4885;SDS011;2457;51.788;6.136;2022-08-18T09:07:05;10.47;;;6.07;;
4885;SDS011;2457;51.788;6.136;2022-08-18T09:12:11;10.03;;;5.73;;
4885;SDS011;2457;51.788;6.136;2022-08-18T09:14:45;9.10;;;5.17;;
4885;SDS011;2457;51.788;6.136;2022-08-18T09:22:50;10.30;;;6.20;;
4885;SDS011;2457;51.788;6.136;2022-08-18T09:25:31;9.10;;;5.63;;
4885;SDS011;2457;51.788;6.136;2022-08-18T09:28:16;13.13;;;5.67;;
4885;SDS011;2457;51.788;6.136;2022-08-18T09:30:47;12.70;;;6.23;;
4885;SDS011;2457;51.788;6.136;2022-08-18T09:33:22;9.50;;;4.80;;
4885;SDS011;2457;51.788;6.136;2022-08-18T09:38:21;10.57;;;5.40;;
4885;SDS011;2457;51.788;6.136;2022-08-18T09:41:15;8.27;;;5.20;;
4885;SDS011;2457;51.788;6.136;2022-08-18T09:51:53;7.60;;;4.20;;
4885;SDS011;2457;51.788;6.136;2022-08-18T09:54:21;6.97;;;4.33;;
4885;SDS011;2457;51.788;6.136;2022-08-18T10:02:12;9.70;;;4.27;;
4885;SDS011;2457;51.788;6.136;2022-08-18T10:04:40;8.73;;;4.23;;
4885;SDS011;2457;51.788;6.136;2022-08-18T10:07:18;12.23;;;4.17;;
4885;SDS011;2457;51.788;6.136;2022-08-18T10:09:43;10.50;;;4.90;;
4885;SDS011;2457;51.788;6.136;2022-08-18T10:12:18;7.30;;;3.70;;
4885;SDS011;2457;51.788;6.136;2022-08-18T10:14:57;8.40;;;4.27;;
4885;SDS011;2457;51.788;6.136;2022-08-18T10:17:33;10.33;;;5.83;;
4885;SDS011;2457;51.788;6.136;2022-08-18T10:20:04;12.83;;;4.70;;
4885;SDS011;2457;51.788;6.136;2022-08-18T10:22:50;11.40;;;5.00;;
4885;SDS011;2457;51.788;6.136;2022-08-18T10:24:58;13.60;;;6.97;;
4885;SDS011;2457;51.788;6.136;2022-08-18T10:33:01;12.37;;;6.23;;
4885;SDS011;2457;51.788;6.136;2022-08-18T10:40:39;10.53;;;5.60;;
4885;SDS011;2457;51.788;6.136;2022-08-18T10:43:09;12.37;;;6.90;;
4885;SDS011;2457;51.788;6.136;2022-08-18T10:45:45;14.03;;;6.43;;
4885;SDS011;2457;51.788;6.136;2022-08-18T10:50:57;11.63;;;6.30;;
4885;SDS011;2457;51.788;6.136;2022-08-18T10:58:53;15.23;;;6.47;;
4885;SDS011;2457;51.788;6.136;2022-08-18T11:01:45;10.17;;;6.13;;
4885;SDS011;2457;51.788;6.136;2022-08-18T11:03:57;10.80;;;5.17;;
4885;SDS011;2457;51.788;6.136;2022-08-18T11:06:22;11.10;;;5.03;;
4885;SDS011;2457;51.788;6.136;2022-08-18T11:08:54;10.67;;;6.50;;
4885;SDS011;2457;51.788;6.136;2022-08-18T11:11:22;13.10;;;6.90;;
4885;SDS011;2457;51.788;6.136;2022-08-18T11:14:11;8.27;;;5.00;;
4885;SDS011;2457;51.788;6.136;2022-08-18T11:19:18;11.77;;;6.17;;
4885;SDS011;2457;51.788;6.136;2022-08-18T11:21:49;9.50;;;5.07;;
4885;SDS011;2457;51.788;6.136;2022-08-18T11:24:18;9.20;;;5.00;;
4885;SDS011;2457;51.788;6.136;2022-08-18T11:26:53;11.57;;;5.80;;
4885;SDS011;2457;51.788;6.136;2022-08-18T11:31:51;13.77;;;6.17;;
4885;SDS011;2457;51.788;6.136;2022-08-18T11:34:21;10.67;;;5.80;;
4885;SDS011;2457;51.788;6.136;2022-08-18T11:36:55;9.77;;;5.30;;
4885;SDS011;2457;51.788;6.136;2022-08-18T11:39:22;7.93;;;5.03;;
4885;SDS011;2457;51.788;6.136;2022-08-18T11:41:50;13.03;;;5.07;;
4885;SDS011;2457;51.788;6.136;2022-08-18T11:44:18;8.70;;;4.10;;
4885;SDS011;2457;51.788;6.136;2022-08-18T11:46:47;12.90;;;4.40;;
4885;SDS011;2457;51.788;6.136;2022-08-18T11:52:02;7.50;;;4.50;;
4885;SDS011;2457;51.788;6.136;2022-08-18T11:54:34;9.53;;;4.80;;
4885;SDS011;2457;51.788;6.136;2022-08-18T11:59:45;9.70;;;4.60;;
4885;SDS011;2457;51.788;6.136;2022-08-18T12:02:16;11.27;;;5.50;;
4885;SDS011;2457;51.788;6.136;2022-08-18T12:04:47;10.27;;;4.60;;
4885;SDS011;2457;51.788;6.136;2022-08-18T12:07:13;6.93;;;4.23;;
4885;SDS011;2457;51.788;6.136;2022-08-18T12:09:42;6.93;;;3.80;;
4885;SDS011;2457;51.788;6.136;2022-08-18T12:14:51;8.63;;;3.90;;
4885;SDS011;2457;51.788;6.136;2022-08-18T12:17:18;7.77;;;4.00;;
4885;SDS011;2457;51.788;6.136;2022-08-18T12:19:46;6.60;;;4.13;;
4885;SDS011;2457;51.788;6.136;2022-08-18T12:22:18;9.70;;;4.10;;
4885;SDS011;2457;51.788;6.136;2022-08-18T12:24:46;10.57;;;4.50;;
4885;SDS011;2457;51.788;6.136;2022-08-18T12:27:13;13.63;;;4.27;;
4885;SDS011;2457;51.788;6.136;2022-08-18T12:29:41;8.40;;;3.90;;
4885;SDS011;2457;51.788;6.136;2022-08-18T12:32:09;9.20;;;4.73;;
4885;SDS011;2457;51.788;6.136;2022-08-18T12:34:37;9.70;;;4.07;;
4885;SDS011;2457;51.788;6.136;2022-08-18T12:37:06;6.53;;;3.57;;
4885;SDS011;2457;51.788;6.136;2022-08-18T12:39:34;8.80;;;3.83;;
4885;SDS011;2457;51.788;6.136;2022-08-18T12:42:01;6.80;;;3.87;;
4885;SDS011;2457;51.788;6.136;2022-08-18T12:44:28;7.90;;;3.63;;
4885;SDS011;2457;51.788;6.136;2022-08-18T12:46:56;8.23;;;4.00;;
4885;SDS011;2457;51.788;6.136;2022-08-18T12:49:23;9.00;;;3.10;;
4885;SDS011;2457;51.788;6.136;2022-08-18T12:51:51;10.37;;;5.03;;
4885;SDS011;2457;51.788;6.136;2022-08-18T12:54:20;7.97;;;4.30;;
4885;SDS011;2457;51.788;6.136;2022-08-18T12:56:49;7.13;;;4.00;;
4885;SDS011;2457;51.788;6.136;2022-08-18T12:59:16;9.37;;;4.20;;
4885;SDS011;2457;51.788;6.136;2022-08-18T13:01:44;8.67;;;3.90;;
4885;SDS011;2457;51.788;6.136;2022-08-18T13:04:12;6.50;;;3.60;;
4885;SDS011;2457;51.788;6.136;2022-08-18T13:06:49;8.27;;;3.50;;
4885;SDS011;2457;51.788;6.136;2022-08-18T13:09:19;7.60;;;3.67;;
4885;SDS011;2457;51.788;6.136;2022-08-18T13:11:46;5.80;;;3.33;;
4885;SDS011;2457;51.788;6.136;2022-08-18T13:14:13;7.90;;;3.87;;
4885;SDS011;2457;51.788;6.136;2022-08-18T13:16:41;9.43;;;3.20;;
4885;SDS011;2457;51.788;6.136;2022-08-18T13:19:10;7.40;;;3.43;;
4885;SDS011;2457;51.788;6.136;2022-08-18T13:21:38;9.37;;;3.77;;
4885;SDS011;2457;51.788;6.136;2022-08-18T13:24:06;6.27;;;3.70;;
4885;SDS011;2457;51.788;6.136;2022-08-18T13:26:35;5.30;;;3.10;;
4885;SDS011;2457;51.788;6.136;2022-08-18T13:29:02;8.77;;;3.20;;
4885;SDS011;2457;51.788;6.136;2022-08-18T13:31:30;8.23;;;3.20;;
4885;SDS011;2457;51.788;6.136;2022-08-18T13:33:57;6.00;;;3.60;;
4885;SDS011;2457;51.788;6.136;2022-08-18T13:36:25;6.40;;;3.70;;
4885;SDS011;2457;51.788;6.136;2022-08-18T13:38:55;6.67;;;3.00;;
4885;SDS011;2457;51.788;6.136;2022-08-18T13:41:22;12.03;;;3.97;;
4885;SDS011;2457;51.788;6.136;2022-08-18T13:43:50;7.10;;;4.23;;
4885;SDS011;2457;51.788;6.136;2022-08-18T13:46:18;5.97;;;3.40;;
4885;SDS011;2457;51.788;6.136;2022-08-18T13:48:46;8.27;;;3.73;;
4885;SDS011;2457;51.788;6.136;2022-08-18T13:51:16;5.97;;;3.17;;
4885;SDS011;2457;51.788;6.136;2022-08-18T13:53:42;5.97;;;3.30;;
4885;SDS011;2457;51.788;6.136;2022-08-18T13:56:09;5.80;;;3.40;;
4885;SDS011;2457;51.788;6.136;2022-08-18T13:58:36;6.40;;;2.90;;
4885;SDS011;2457;51.788;6.136;2022-08-18T14:01:04;7.53;;;3.67;;
4885;SDS011;2457;51.788;6.136;2022-08-18T14:03:34;7.17;;;3.80;;
4885;SDS011;2457;51.788;6.136;2022-08-18T14:06:01;7.17;;;3.63;;
4885;SDS011;2457;51.788;6.136;2022-08-18T14:08:29;7.03;;;3.60;;
4885;SDS011;2457;51.788;6.136;2022-08-18T14:10:58;10.23;;;4.00;;
4885;SDS011;2457;51.788;6.136;2022-08-18T14:13:26;8.47;;;3.67;;
4885;SDS011;2457;51.788;6.136;2022-08-18T14:15:54;7.20;;;3.30;;
4885;SDS011;2457;51.788;6.136;2022-08-18T14:18:22;6.10;;;3.43;;
4885;SDS011;2457;51.788;6.136;2022-08-18T14:20:49;6.20;;;3.43;;
4885;SDS011;2457;51.788;6.136;2022-08-18T14:23:35;9.10;;;3.80;;
4885;SDS011;2457;51.788;6.136;2022-08-18T14:26:13;6.73;;;3.53;;
4885;SDS011;2457;51.788;6.136;2022-08-18T14:28:58;11.20;;;3.80;;
4885;SDS011;2457;51.788;6.136;2022-08-18T14:31:25;11.50;;;4.30;;
4885;SDS011;2457;51.788;6.136;2022-08-18T14:33:53;6.93;;;3.80;;
4885;SDS011;2457;51.788;6.136;2022-08-18T14:36:20;7.13;;;3.60;;
4885;SDS011;2457;51.788;6.136;2022-08-18T14:38:49;10.17;;;4.33;;
4885;SDS011;2457;51.788;6.136;2022-08-18T14:41:16;8.10;;;4.17;;
4885;SDS011;2457;51.788;6.136;2022-08-18T14:43:44;7.00;;;3.93;;
4885;SDS011;2457;51.788;6.136;2022-08-18T14:46:11;6.47;;;3.80;;
4885;SDS011;2457;51.788;6.136;2022-08-18T14:48:39;7.03;;;4.10;;
4885;SDS011;2457;51.788;6.136;2022-08-18T14:51:06;8.63;;;3.83;;
4885;SDS011;2457;51.788;6.136;2022-08-18T14:53:34;11.47;;;4.40;;
4885;SDS011;2457;51.788;6.136;2022-08-18T14:56:02;10.83;;;3.93;;
4885;SDS011;2457;51.788;6.136;2022-08-18T14:58:30;8.17;;;4.30;;
4885;SDS011;2457;51.788;6.136;2022-08-18T15:00:59;9.03;;;4.57;;
4885;SDS011;2457;51.788;6.136;2022-08-18T15:03:28;7.90;;;4.77;;
4885;SDS011;2457;51.788;6.136;2022-08-18T15:05:56;12.13;;;4.60;;
4885;SDS011;2457;51.788;6.136;2022-08-18T15:08:24;7.60;;;4.57;;
4885;SDS011;2457;51.788;6.136;2022-08-18T15:10:51;8.40;;;4.90;;
4885;SDS011;2457;51.788;6.136;2022-08-18T15:13:19;8.33;;;4.63;;
4885;SDS011;2457;51.788;6.136;2022-08-18T15:15:47;7.13;;;3.93;;
4885;SDS011;2457;51.788;6.136;2022-08-18T15:18:14;6.70;;;4.03;;
4885;SDS011;2457;51.788;6.136;2022-08-18T15:20:42;7.87;;;4.10;;
4885;SDS011;2457;51.788;6.136;2022-08-18T15:23:28;7.27;;;4.27;;
4885;SDS011;2457;51.788;6.136;2022-08-18T15:26:16;5.90;;;3.70;;
4885;SDS011;2457;51.788;6.136;2022-08-18T15:28:42;7.10;;;4.10;;
4885;SDS011;2457;51.788;6.136;2022-08-18T15:31:09;8.80;;;4.40;;
4885;SDS011;2457;51.788;6.136;2022-08-18T15:33:37;9.40;;;4.53;;
4885;SDS011;2457;51.788;6.136;2022-08-18T15:36:04;7.67;;;4.43;;
4885;SDS011;2457;51.788;6.136;2022-08-18T15:38:31;6.10;;;3.80;;
4885;SDS011;2457;51.788;6.136;2022-08-18T15:40:59;6.67;;;4.20;;
4885;SDS011;2457;51.788;6.136;2022-08-18T15:43:29;6.47;;;4.10;;
4885;SDS011;2457;51.788;6.136;2022-08-18T15:45:58;9.87;;;5.10;;
4885;SDS011;2457;51.788;6.136;2022-08-18T15:48:26;9.07;;;4.20;;
4885;SDS011;2457;51.788;6.136;2022-08-18T15:50:54;9.43;;;4.10;;
4885;SDS011;2457;51.788;6.136;2022-08-18T15:53:23;7.53;;;3.83;;
4885;SDS011;2457;51.788;6.136;2022-08-18T15:55:51;5.93;;;3.50;;
4885;SDS011;2457;51.788;6.136;2022-08-18T15:58:18;6.97;;;3.67;;
4885;SDS011;2457;51.788;6.136;2022-08-18T16:00:46;10.40;;;3.80;;
4885;SDS011;2457;51.788;6.136;2022-08-18T16:03:15;6.43;;;3.50;;
4885;SDS011;2457;51.788;6.136;2022-08-18T16:05:50;5.90;;;3.40;;
4885;SDS011;2457;51.788;6.136;2022-08-18T16:08:18;7.10;;;3.70;;
4885;SDS011;2457;51.788;6.136;2022-08-18T16:10:46;7.90;;;3.83;;
4885;SDS011;2457;51.788;6.136;2022-08-18T16:13:13;7.40;;;4.10;;
4885;SDS011;2457;51.788;6.136;2022-08-18T16:15:41;10.57;;;4.33;;
4885;SDS011;2457;51.788;6.136;2022-08-18T16:18:11;6.53;;;3.70;;
4885;SDS011;2457;51.788;6.136;2022-08-18T16:20:38;6.27;;;3.87;;
4885;SDS011;2457;51.788;6.136;2022-08-18T16:23:07;7.10;;;3.60;;
4885;SDS011;2457;51.788;6.136;2022-08-18T16:25:36;8.80;;;4.30;;
4885;SDS011;2457;51.788;6.136;2022-08-18T16:28:04;8.40;;;4.40;;
4885;SDS011;2457;51.788;6.136;2022-08-18T16:30:32;11.17;;;3.70;;
4885;SDS011;2457;51.788;6.136;2022-08-18T16:33:00;8.43;;;3.67;;
4885;SDS011;2457;51.788;6.136;2022-08-18T16:35:31;6.23;;;3.80;;
4885;SDS011;2457;51.788;6.136;2022-08-18T16:38:03;6.77;;;3.73;;
4885;SDS011;2457;51.788;6.136;2022-08-18T16:40:30;7.27;;;3.60;;
4885;SDS011;2457;51.788;6.136;2022-08-18T16:43:01;9.73;;;3.37;;
4885;SDS011;2457;51.788;6.136;2022-08-18T16:45:29;5.37;;;3.03;;
4885;SDS011;2457;51.788;6.136;2022-08-18T16:47:58;6.30;;;3.63;;
4885;SDS011;2457;51.788;6.136;2022-08-18T16:50:25;6.33;;;2.90;;
4885;SDS011;2457;51.788;6.136;2022-08-18T16:52:53;6.20;;;3.57;;
4885;SDS011;2457;51.788;6.136;2022-08-18T16:55:20;7.60;;;3.27;;
4885;SDS011;2457;51.788;6.136;2022-08-18T16:57:48;7.87;;;3.67;;
4885;SDS011;2457;51.788;6.136;2022-08-18T17:00:33;7.57;;;3.80;;
4885;SDS011;2457;51.788;6.136;2022-08-18T17:03:18;6.20;;;3.47;;
4885;SDS011;2457;51.788;6.136;2022-08-18T17:06:08;7.67;;;3.40;;
4885;SDS011;2457;51.788;6.136;2022-08-18T17:08:36;5.57;;;3.80;;
4885;SDS011;2457;51.788;6.136;2022-08-18T17:11:07;9.20;;;3.53;;
4885;SDS011;2457;51.788;6.136;2022-08-18T17:13:36;7.10;;;4.07;;
4885;SDS011;2457;51.788;6.136;2022-08-18T17:16:05;6.63;;;3.63;;
4885;SDS011;2457;51.788;6.136;2022-08-18T17:18:33;9.47;;;3.63;;